sensor_id;sensor_type;location;lat;lon;timestamp;P1;durP1;ratioP1;P2;durP2;ratioP2
15693;SDS011;7947;48.834;9.132;2023-08-01T00:02:05;4.35;;;2.20;;
15693;SDS011;7947;48.834;9.132;2023-08-01T00:05:08;3.35;;;2.00;;
15693;SDS011;7947;48.834;9.132;2023-08-01T00:08:11;3.30;;;2.00;;
15693;SDS011;7947;48.834;9.132;2023-08-01T00:11:15;3.05;;;2.03;;
15693;SDS011;7947;48.834;9.132;2023-08-01T00:14:18;2.85;;;2.00;;
15693;SDS011;7947;48.834;9.132;2023-08-01T00:17:21;2.65;;;1.67;;
15693;SDS011;7947;48.834;9.132;2023-08-01T00:20:24;3.35;;;1.80;;
15693;SDS011;7947;48.834;9.132;2023-08-01T00:23:27;3.13;;;1.95;;
15693;SDS011;7947;48.834;9.132;2023-08-01T00:26:31;4.30;;;2.17;;
15693;SDS011;7947;48.834;9.132;2023-08-01T00:29:33;3.67;;;2.10;;
15693;SDS011;7947;48.834;9.132;2023-08-01T00:32:36;3.28;;;1.92;;
15693;SDS011;7947;48.834;9.132;2023-08-01T00:35:40;3.90;;;2.22;;
15693;SDS011;7947;48.834;9.132;2023-08-01T00:38:42;2.30;;;1.73;;
15693;SDS011;7947;48.834;9.132;2023-08-01T00:41:47;5.85;;;1.90;;
15693;SDS011;7947;48.834;9.132;2023-08-01T00:44:50;3.13;;;2.00;;
15693;SDS011;7947;48.834;9.132;2023-08-01T00:47:53;4.10;;;2.08;;
15693;SDS011;7947;48.834;9.132;2023-08-01T00:50:57;4.15;;;2.05;;
15693;SDS011;7947;48.834;9.132;2023-08-01T00:54:00;2.50;;;2.00;;
15693;SDS011;7947;48.834;9.132;2023-08-01T00:57:05;2.70;;;1.88;;
15693;SDS011;7947;48.834;9.132;2023-08-01T01:00:08;2.22;;;1.73;;
15693;SDS011;7947;48.834;9.132;2023-08-01T01:03:12;2.60;;;1.88;;
15693;SDS011;7947;48.834;9.132;2023-08-01T01:06:16;4.15;;;1.98;;
15693;SDS011;7947;48.834;9.132;2023-08-01T01:09:24;3.78;;;2.15;;
15693;SDS011;7947;48.834;9.132;2023-08-01T01:12:34;2.58;;;1.90;;
15693;SDS011;7947;48.834;9.132;2023-08-01T01:15:37;4.35;;;2.85;;
15693;SDS011;7947;48.834;9.132;2023-08-01T01:18:40;2.40;;;1.80;;
15693;SDS011;7947;48.834;9.132;2023-08-01T01:21:44;3.50;;;2.25;;
15693;SDS011;7947;48.834;9.132;2023-08-01T01:24:49;3.58;;;2.35;;
15693;SDS011;7947;48.834;9.132;2023-08-01T01:27:55;3.75;;;2.47;;
15693;SDS011;7947;48.834;9.132;2023-08-01T01:30:59;2.53;;;1.95;;
15693;SDS011;7947;48.834;9.132;2023-08-01T01:34:04;3.03;;;1.83;;
15693;SDS011;7947;48.834;9.132;2023-08-01T01:37:08;3.95;;;2.20;;
15693;SDS011;7947;48.834;9.132;2023-08-01T01:40:11;4.78;;;2.75;;
15693;SDS011;7947;48.834;9.132;2023-08-01T01:43:14;3.55;;;2.47;;
15693;SDS011;7947;48.834;9.132;2023-08-01T01:46:17;4.03;;;2.42;;
15693;SDS011;7947;48.834;9.132;2023-08-01T01:49:20;3.17;;;2.25;;
15693;SDS011;7947;48.834;9.132;2023-08-01T01:52:24;4.18;;;2.33;;
15693;SDS011;7947;48.834;9.132;2023-08-01T01:55:26;3.53;;;2.35;;
15693;SDS011;7947;48.834;9.132;2023-08-01T01:58:29;3.78;;;2.28;;
15693;SDS011;7947;48.834;9.132;2023-08-01T02:01:34;4.53;;;2.40;;
15693;SDS011;7947;48.834;9.132;2023-08-01T02:04:37;3.17;;;1.98;;
15693;SDS011;7947;48.834;9.132;2023-08-01T02:07:41;3.53;;;2.30;;
15693;SDS011;7947;48.834;9.132;2023-08-01T02:10:44;4.53;;;2.30;;
15693;SDS011;7947;48.834;9.132;2023-08-01T02:13:47;2.70;;;2.10;;
15693;SDS011;7947;48.834;9.132;2023-08-01T02:16:49;2.80;;;1.80;;
15693;SDS011;7947;48.834;9.132;2023-08-01T02:19:52;5.18;;;2.28;;
15693;SDS011;7947;48.834;9.132;2023-08-01T02:22:57;2.97;;;2.00;;
15693;SDS011;7947;48.834;9.132;2023-08-01T02:26:00;5.40;;;2.40;;
15693;SDS011;7947;48.834;9.132;2023-08-01T02:29:02;3.60;;;1.98;;
15693;SDS011;7947;48.834;9.132;2023-08-01T02:32:05;4.55;;;2.05;;
15693;SDS011;7947;48.834;9.132;2023-08-01T02:35:09;3.33;;;2.15;;
15693;SDS011;7947;48.834;9.132;2023-08-01T02:38:13;4.43;;;2.50;;
15693;SDS011;7947;48.834;9.132;2023-08-01T02:41:15;3.28;;;2.38;;
15693;SDS011;7947;48.834;9.132;2023-08-01T02:44:18;4.78;;;2.50;;
15693;SDS011;7947;48.834;9.132;2023-08-01T02:47:21;3.78;;;2.60;;
15693;SDS011;7947;48.834;9.132;2023-08-01T02:50:23;3.63;;;2.20;;
15693;SDS011;7947;48.834;9.132;2023-08-01T02:53:28;4.18;;;2.30;;
15693;SDS011;7947;48.834;9.132;2023-08-01T02:56:30;3.17;;;2.20;;
15693;SDS011;7947;48.834;9.132;2023-08-01T02:59:33;4.05;;;2.60;;
15693;SDS011;7947;48.834;9.132;2023-08-01T03:02:36;3.78;;;2.00;;
15693;SDS011;7947;48.834;9.132;2023-08-01T03:05:38;3.92;;;2.45;;
15693;SDS011;7947;48.834;9.132;2023-08-01T03:08:43;2.72;;;2.00;;
15693;SDS011;7947;48.834;9.132;2023-08-01T03:11:46;4.78;;;2.20;;
15693;SDS011;7947;48.834;9.132;2023-08-01T03:14:48;5.20;;;2.38;;
15693;SDS011;7947;48.834;9.132;2023-08-01T03:17:51;3.00;;;2.25;;
15693;SDS011;7947;48.834;9.132;2023-08-01T03:20:54;2.83;;;2.05;;
15693;SDS011;7947;48.834;9.132;2023-08-01T03:23:58;2.85;;;2.00;;
15693;SDS011;7947;48.834;9.132;2023-08-01T03:27:01;2.72;;;2.15;;
15693;SDS011;7947;48.834;9.132;2023-08-01T03:30:05;3.25;;;2.40;;
15693;SDS011;7947;48.834;9.132;2023-08-01T03:33:10;3.00;;;2.30;;
15693;SDS011;7947;48.834;9.132;2023-08-01T03:36:13;2.60;;;2.05;;
15693;SDS011;7947;48.834;9.132;2023-08-01T03:39:17;2.72;;;1.95;;
15693;SDS011;7947;48.834;9.132;2023-08-01T03:42:19;4.57;;;2.17;;
15693;SDS011;7947;48.834;9.132;2023-08-01T03:45:22;2.28;;;1.80;;
15693;SDS011;7947;48.834;9.132;2023-08-01T03:48:25;3.65;;;2.53;;
15693;SDS011;7947;48.834;9.132;2023-08-01T03:51:28;4.68;;;2.30;;
15693;SDS011;7947;48.834;9.132;2023-08-01T03:54:32;2.65;;;2.08;;
15693;SDS011;7947;48.834;9.132;2023-08-01T03:57:35;2.53;;;2.00;;
15693;SDS011;7947;48.834;9.132;2023-08-01T04:00:39;3.13;;;2.10;;
15693;SDS011;7947;48.834;9.132;2023-08-01T04:03:42;4.10;;;1.80;;
15693;SDS011;7947;48.834;9.132;2023-08-01T04:06:45;3.35;;;1.95;;
15693;SDS011;7947;48.834;9.132;2023-08-01T04:09:49;2.53;;;1.98;;
15693;SDS011;7947;48.834;9.132;2023-08-01T04:12:52;2.25;;;1.50;;
15693;SDS011;7947;48.834;9.132;2023-08-01T04:15:55;2.53;;;1.83;;
15693;SDS011;7947;48.834;9.132;2023-08-01T04:18:57;2.30;;;1.60;;
15693;SDS011;7947;48.834;9.132;2023-08-01T04:22:00;3.10;;;1.83;;
15693;SDS011;7947;48.834;9.132;2023-08-01T04:25:05;2.00;;;1.60;;
15693;SDS011;7947;48.834;9.132;2023-08-01T04:28:08;4.03;;;1.98;;
15693;SDS011;7947;48.834;9.132;2023-08-01T04:31:11;4.82;;;2.00;;
15693;SDS011;7947;48.834;9.132;2023-08-01T04:34:14;3.17;;;1.98;;
15693;SDS011;7947;48.834;9.132;2023-08-01T04:37:20;5.28;;;1.90;;
15693;SDS011;7947;48.834;9.132;2023-08-01T04:40:25;3.38;;;1.70;;
15693;SDS011;7947;48.834;9.132;2023-08-01T04:43:28;4.00;;;1.73;;
15693;SDS011;7947;48.834;9.132;2023-08-01T04:46:31;2.47;;;1.50;;
15693;SDS011;7947;48.834;9.132;2023-08-01T04:49:34;2.03;;;1.42;;
15693;SDS011;7947;48.834;9.132;2023-08-01T04:52:37;4.05;;;1.25;;
15693;SDS011;7947;48.834;9.132;2023-08-01T04:55:41;2.70;;;1.60;;
15693;SDS011;7947;48.834;9.132;2023-08-01T04:58:44;3.05;;;1.85;;
15693;SDS011;7947;48.834;9.132;2023-08-01T05:01:47;2.25;;;1.40;;
15693;SDS011;7947;48.834;9.132;2023-08-01T05:04:49;2.10;;;1.35;;
15693;SDS011;7947;48.834;9.132;2023-08-01T05:07:52;3.38;;;1.65;;
15693;SDS011;7947;48.834;9.132;2023-08-01T05:10:56;2.35;;;1.60;;
15693;SDS011;7947;48.834;9.132;2023-08-01T05:13:59;3.38;;;1.83;;
15693;SDS011;7947;48.834;9.132;2023-08-01T05:17:02;3.38;;;1.70;;
15693;SDS011;7947;48.834;9.132;2023-08-01T05:20:06;2.10;;;1.42;;
15693;SDS011;7947;48.834;9.132;2023-08-01T05:23:10;2.85;;;1.77;;
15693;SDS011;7947;48.834;9.132;2023-08-01T05:26:14;2.67;;;1.50;;
15693;SDS011;7947;48.834;9.132;2023-08-01T05:29:16;2.70;;;1.45;;
15693;SDS011;7947;48.834;9.132;2023-08-01T05:32:19;2.25;;;1.55;;
15693;SDS011;7947;48.834;9.132;2023-08-01T05:35:22;2.25;;;1.70;;
15693;SDS011;7947;48.834;9.132;2023-08-01T05:38:25;2.97;;;1.65;;
15693;SDS011;7947;48.834;9.132;2023-08-01T05:41:29;3.42;;;1.58;;
15693;SDS011;7947;48.834;9.132;2023-08-01T05:44:32;2.13;;;1.50;;
15693;SDS011;7947;48.834;9.132;2023-08-01T05:47:35;2.15;;;1.63;;
15693;SDS011;7947;48.834;9.132;2023-08-01T05:50:38;2.55;;;1.55;;
15693;SDS011;7947;48.834;9.132;2023-08-01T05:53:41;2.92;;;1.55;;
15693;SDS011;7947;48.834;9.132;2023-08-01T05:56:45;2.90;;;1.95;;
15693;SDS011;7947;48.834;9.132;2023-08-01T05:59:48;3.78;;;2.00;;
15693;SDS011;7947;48.834;9.132;2023-08-01T06:02:51;2.03;;;1.60;;
15693;SDS011;7947;48.834;9.132;2023-08-01T06:05:54;3.35;;;1.80;;
15693;SDS011;7947;48.834;9.132;2023-08-01T06:08:56;3.50;;;2.00;;
15693;SDS011;7947;48.834;9.132;2023-08-01T06:12:01;4.03;;;2.25;;
15693;SDS011;7947;48.834;9.132;2023-08-01T06:15:04;3.55;;;2.13;;
15693;SDS011;7947;48.834;9.132;2023-08-01T06:18:07;3.33;;;2.30;;
15693;SDS011;7947;48.834;9.132;2023-08-01T06:21:13;3.70;;;2.30;;
15693;SDS011;7947;48.834;9.132;2023-08-01T06:24:15;5.93;;;2.28;;
15693;SDS011;7947;48.834;9.132;2023-08-01T06:27:20;4.40;;;1.98;;
15693;SDS011;7947;48.834;9.132;2023-08-01T06:30:23;3.00;;;2.25;;
15693;SDS011;7947;48.834;9.132;2023-08-01T06:33:25;3.38;;;1.98;;
15693;SDS011;7947;48.834;9.132;2023-08-01T06:36:28;3.75;;;2.15;;
15693;SDS011;7947;48.834;9.132;2023-08-01T06:39:31;3.75;;;2.50;;
15693;SDS011;7947;48.834;9.132;2023-08-01T06:42:35;3.10;;;2.22;;
15693;SDS011;7947;48.834;9.132;2023-08-01T06:45:39;5.00;;;2.40;;
15693;SDS011;7947;48.834;9.132;2023-08-01T06:48:42;5.05;;;2.95;;
15693;SDS011;7947;48.834;9.132;2023-08-01T06:51:45;4.88;;;2.58;;
15693;SDS011;7947;48.834;9.132;2023-08-01T06:54:47;3.70;;;2.70;;
15693;SDS011;7947;48.834;9.132;2023-08-01T06:57:51;4.28;;;2.42;;
15693;SDS011;7947;48.834;9.132;2023-08-01T07:00:54;4.20;;;2.42;;
15693;SDS011;7947;48.834;9.132;2023-08-01T07:03:57;5.15;;;2.83;;
15693;SDS011;7947;48.834;9.132;2023-08-01T07:07:00;4.47;;;2.70;;
15693;SDS011;7947;48.834;9.132;2023-08-01T07:10:04;4.63;;;2.75;;
15693;SDS011;7947;48.834;9.132;2023-08-01T07:13:09;5.50;;;2.92;;
15693;SDS011;7947;48.834;9.132;2023-08-01T07:16:12;3.95;;;3.00;;
15693;SDS011;7947;48.834;9.132;2023-08-01T07:19:16;6.97;;;4.00;;
15693;SDS011;7947;48.834;9.132;2023-08-01T07:22:19;6.60;;;3.25;;
15693;SDS011;7947;48.834;9.132;2023-08-01T07:25:21;4.55;;;2.88;;
15693;SDS011;7947;48.834;9.132;2023-08-01T07:28:26;7.53;;;3.40;;
15693;SDS011;7947;48.834;9.132;2023-08-01T07:31:29;5.90;;;3.03;;
15693;SDS011;7947;48.834;9.132;2023-08-01T07:34:32;4.30;;;2.83;;
15693;SDS011;7947;48.834;9.132;2023-08-01T07:37:35;5.35;;;3.08;;
15693;SDS011;7947;48.834;9.132;2023-08-01T07:40:39;5.60;;;2.85;;
15693;SDS011;7947;48.834;9.132;2023-08-01T07:43:43;6.20;;;2.75;;
15693;SDS011;7947;48.834;9.132;2023-08-01T07:46:46;4.60;;;2.70;;
15693;SDS011;7947;48.834;9.132;2023-08-01T07:49:48;3.33;;;2.28;;
15693;SDS011;7947;48.834;9.132;2023-08-01T07:52:51;4.47;;;2.58;;
15693;SDS011;7947;48.834;9.132;2023-08-01T07:55:55;3.15;;;2.22;;
15693;SDS011;7947;48.834;9.132;2023-08-01T07:58:59;2.80;;;1.90;;
15693;SDS011;7947;48.834;9.132;2023-08-01T08:02:02;3.22;;;1.70;;
15693;SDS011;7947;48.834;9.132;2023-08-01T08:05:06;2.47;;;1.65;;
15693;SDS011;7947;48.834;9.132;2023-08-01T08:08:09;2.95;;;1.60;;
15693;SDS011;7947;48.834;9.132;2023-08-01T08:11:12;2.97;;;1.45;;
15693;SDS011;7947;48.834;9.132;2023-08-01T08:14:16;1.92;;;1.35;;
15693;SDS011;7947;48.834;9.132;2023-08-01T08:17:19;2.13;;;1.48;;
15693;SDS011;7947;48.834;9.132;2023-08-01T08:20:21;2.13;;;1.30;;
15693;SDS011;7947;48.834;9.132;2023-08-01T08:23:24;2.53;;;1.48;;
15693;SDS011;7947;48.834;9.132;2023-08-01T08:26:27;2.67;;;1.40;;
15693;SDS011;7947;48.834;9.132;2023-08-01T08:29:31;2.55;;;1.40;;
15693;SDS011;7947;48.834;9.132;2023-08-01T08:32:35;2.10;;;1.40;;
15693;SDS011;7947;48.834;9.132;2023-08-01T08:35:38;1.60;;;1.10;;
15693;SDS011;7947;48.834;9.132;2023-08-01T08:38:41;2.25;;;1.52;;
15693;SDS011;7947;48.834;9.132;2023-08-01T08:41:45;2.20;;;1.35;;
15693;SDS011;7947;48.834;9.132;2023-08-01T08:44:50;2.70;;;1.15;;
15693;SDS011;7947;48.834;9.132;2023-08-01T08:47:59;2.25;;;1.42;;
15693;SDS011;7947;48.834;9.132;2023-08-01T08:51:04;2.13;;;1.15;;
15693;SDS011;7947;48.834;9.132;2023-08-01T08:54:09;2.08;;;1.15;;
15693;SDS011;7947;48.834;9.132;2023-08-01T08:57:12;2.13;;;1.17;;
15693;SDS011;7947;48.834;9.132;2023-08-01T09:00:17;2.03;;;1.20;;
15693;SDS011;7947;48.834;9.132;2023-08-01T09:03:22;1.38;;;0.98;;
15693;SDS011;7947;48.834;9.132;2023-08-01T09:06:26;2.38;;;1.20;;
15693;SDS011;7947;48.834;9.132;2023-08-01T09:09:33;1.50;;;1.00;;
15693;SDS011;7947;48.834;9.132;2023-08-01T09:12:38;1.00;;;0.60;;
15693;SDS011;7947;48.834;9.132;2023-08-01T09:15:42;1.65;;;0.88;;
15693;SDS011;7947;48.834;9.132;2023-08-01T09:18:49;1.92;;;1.20;;
15693;SDS011;7947;48.834;9.132;2023-08-01T09:21:52;1.63;;;1.05;;
15693;SDS011;7947;48.834;9.132;2023-08-01T09:24:56;1.27;;;1.08;;
15693;SDS011;7947;48.834;9.132;2023-08-01T09:27:58;2.13;;;0.98;;
15693;SDS011;7947;48.834;9.132;2023-08-01T09:31:03;1.23;;;1.00;;
15693;SDS011;7947;48.834;9.132;2023-08-01T09:34:06;1.92;;;0.90;;
15693;SDS011;7947;48.834;9.132;2023-08-01T09:37:21;1.33;;;0.90;;
15693;SDS011;7947;48.834;9.132;2023-08-01T09:40:23;1.38;;;0.63;;
15693;SDS011;7947;48.834;9.132;2023-08-01T09:43:32;0.70;;;0.70;;
15693;SDS011;7947;48.834;9.132;2023-08-01T09:46:37;1.02;;;0.90;;
15693;SDS011;7947;48.834;9.132;2023-08-01T09:49:47;0.88;;;0.68;;
15693;SDS011;7947;48.834;9.132;2023-08-01T09:52:50;0.60;;;0.43;;
15693;SDS011;7947;48.834;9.132;2023-08-01T09:55:54;0.90;;;0.63;;
15693;SDS011;7947;48.834;9.132;2023-08-01T09:58:59;0.30;;;0.22;;
15693;SDS011;7947;48.834;9.132;2023-08-01T10:02:05;0.68;;;0.50;;
15693;SDS011;7947;48.834;9.132;2023-08-01T10:05:17;0.50;;;0.30;;
15693;SDS011;7947;48.834;9.132;2023-08-01T10:08:21;0.45;;;0.30;;
15693;SDS011;7947;48.834;9.132;2023-08-01T10:11:25;1.02;;;0.40;;
15693;SDS011;7947;48.834;9.132;2023-08-01T10:14:29;0.32;;;0.30;;
15693;SDS011;7947;48.834;9.132;2023-08-01T10:17:35;0.90;;;0.43;;
15693;SDS011;7947;48.834;9.132;2023-08-01T10:20:39;0.60;;;0.40;;
15693;SDS011;7947;48.834;9.132;2023-08-01T10:23:42;0.30;;;0.20;;
15693;SDS011;7947;48.834;9.132;2023-08-01T10:26:47;0.93;;;0.50;;
15693;SDS011;7947;48.834;9.132;2023-08-01T10:29:56;0.35;;;0.30;;
15693;SDS011;7947;48.834;9.132;2023-08-01T10:33:00;0.60;;;0.40;;
15693;SDS011;7947;48.834;9.132;2023-08-01T10:36:14;0.40;;;0.22;;
15693;SDS011;7947;48.834;9.132;2023-08-01T10:39:20;0.20;;;0.20;;
15693;SDS011;7947;48.834;9.132;2023-08-01T10:42:36;0.40;;;0.40;;
15693;SDS011;7947;48.834;9.132;2023-08-01T10:45:40;0.88;;;0.20;;
15693;SDS011;7947;48.834;9.132;2023-08-01T10:48:51;0.50;;;0.35;;
15693;SDS011;7947;48.834;9.132;2023-08-01T10:51:54;0.50;;;0.50;;
15693;SDS011;7947;48.834;9.132;2023-08-01T10:54:58;0.40;;;0.30;;
15693;SDS011;7947;48.834;9.132;2023-08-01T10:58:02;0.40;;;0.40;;
15693;SDS011;7947;48.834;9.132;2023-08-01T11:01:04;0.32;;;0.30;;
15693;SDS011;7947;48.834;9.132;2023-08-01T11:04:14;1.25;;;0.50;;
15693;SDS011;7947;48.834;9.132;2023-08-01T11:07:17;0.88;;;0.40;;
15693;SDS011;7947;48.834;9.132;2023-08-01T11:10:20;0.77;;;0.40;;
15693;SDS011;7947;48.834;9.132;2023-08-01T11:13:23;0.68;;;0.50;;
15693;SDS011;7947;48.834;9.132;2023-08-01T11:16:25;0.55;;;0.30;;
15693;SDS011;7947;48.834;9.132;2023-08-01T11:19:30;2.05;;;0.50;;
15693;SDS011;7947;48.834;9.132;2023-08-01T11:22:34;0.63;;;0.50;;
15693;SDS011;7947;48.834;9.132;2023-08-01T11:25:37;1.10;;;0.60;;
15693;SDS011;7947;48.834;9.132;2023-08-01T11:28:42;0.57;;;0.40;;
15693;SDS011;7947;48.834;9.132;2023-08-01T11:31:53;1.08;;;0.57;;
15693;SDS011;7947;48.834;9.132;2023-08-01T11:34:58;0.70;;;0.60;;
15693;SDS011;7947;48.834;9.132;2023-08-01T11:38:00;0.95;;;0.65;;
15693;SDS011;7947;48.834;9.132;2023-08-01T11:41:04;0.70;;;0.60;;
15693;SDS011;7947;48.834;9.132;2023-08-01T11:44:07;0.60;;;0.50;;
15693;SDS011;7947;48.834;9.132;2023-08-01T11:47:12;1.08;;;0.65;;
15693;SDS011;7947;48.834;9.132;2023-08-01T11:50:21;1.20;;;0.90;;
15693;SDS011;7947;48.834;9.132;2023-08-01T11:53:25;1.00;;;0.82;;
15693;SDS011;7947;48.834;9.132;2023-08-01T11:56:29;1.08;;;0.70;;
15693;SDS011;7947;48.834;9.132;2023-08-01T11:59:33;1.38;;;0.77;;
15693;SDS011;7947;48.834;9.132;2023-08-01T12:02:35;1.42;;;0.50;;
15693;SDS011;7947;48.834;9.132;2023-08-01T12:05:40;0.93;;;0.70;;
15693;SDS011;7947;48.834;9.132;2023-08-01T12:08:47;1.75;;;0.90;;
15693;SDS011;7947;48.834;9.132;2023-08-01T12:11:57;1.48;;;0.70;;
15693;SDS011;7947;48.834;9.132;2023-08-01T12:15:01;2.30;;;0.50;;
15693;SDS011;7947;48.834;9.132;2023-08-01T12:18:04;0.80;;;0.57;;
15693;SDS011;7947;48.834;9.132;2023-08-01T12:21:08;1.92;;;0.90;;
15693;SDS011;7947;48.834;9.132;2023-08-01T12:24:11;1.65;;;0.43;;
15693;SDS011;7947;48.834;9.132;2023-08-01T12:27:14;1.75;;;0.90;;
15693;SDS011;7947;48.834;9.132;2023-08-01T12:30:17;3.10;;;0.90;;
15693;SDS011;7947;48.834;9.132;2023-08-01T12:33:20;1.48;;;0.68;;
15693;SDS011;7947;48.834;9.132;2023-08-01T12:36:28;0.77;;;0.60;;
15693;SDS011;7947;48.834;9.132;2023-08-01T12:39:31;2.47;;;0.63;;
15693;SDS011;7947;48.834;9.132;2023-08-01T12:42:34;1.48;;;0.77;;
15693;SDS011;7947;48.834;9.132;2023-08-01T12:45:37;1.38;;;0.75;;
15693;SDS011;7947;48.834;9.132;2023-08-01T12:48:40;1.63;;;0.90;;
15693;SDS011;7947;48.834;9.132;2023-08-01T12:51:44;0.85;;;0.63;;
15693;SDS011;7947;48.834;9.132;2023-08-01T12:54:49;1.20;;;0.85;;
15693;SDS011;7947;48.834;9.132;2023-08-01T12:57:52;1.92;;;0.90;;
15693;SDS011;7947;48.834;9.132;2023-08-01T13:00:55;1.20;;;0.70;;
15693;SDS011;7947;48.834;9.132;2023-08-01T13:03:58;1.42;;;0.70;;
15693;SDS011;7947;48.834;9.132;2023-08-01T13:07:03;0.93;;;0.60;;
15693;SDS011;7947;48.834;9.132;2023-08-01T13:10:07;0.90;;;0.70;;
15693;SDS011;7947;48.834;9.132;2023-08-01T13:13:10;1.33;;;0.70;;
15693;SDS011;7947;48.834;9.132;2023-08-01T13:16:13;0.70;;;0.60;;
15693;SDS011;7947;48.834;9.132;2023-08-01T13:19:16;1.10;;;0.70;;
15693;SDS011;7947;48.834;9.132;2023-08-01T13:22:20;1.15;;;0.70;;
15693;SDS011;7947;48.834;9.132;2023-08-01T13:25:23;0.70;;;0.70;;
15693;SDS011;7947;48.834;9.132;2023-08-01T13:28:25;0.98;;;0.85;;
15693;SDS011;7947;48.834;9.132;2023-08-01T13:31:28;1.15;;;0.63;;
15693;SDS011;7947;48.834;9.132;2023-08-01T13:34:31;1.30;;;0.80;;
15693;SDS011;7947;48.834;9.132;2023-08-01T13:37:35;1.08;;;0.80;;
15693;SDS011;7947;48.834;9.132;2023-08-01T13:40:38;1.00;;;0.80;;
15693;SDS011;7947;48.834;9.132;2023-08-01T13:43:41;1.63;;;0.70;;
15693;SDS011;7947;48.834;9.132;2023-08-01T13:46:44;1.10;;;0.70;;
15693;SDS011;7947;48.834;9.132;2023-08-01T13:49:48;1.25;;;0.80;;
15693;SDS011;7947;48.834;9.132;2023-08-01T13:52:52;1.38;;;0.70;;
15693;SDS011;7947;48.834;9.132;2023-08-01T13:55:54;1.33;;;0.80;;
15693;SDS011;7947;48.834;9.132;2023-08-01T13:58:57;1.05;;;0.95;;
15693;SDS011;7947;48.834;9.132;2023-08-01T14:02:00;1.65;;;0.90;;
15693;SDS011;7947;48.834;9.132;2023-08-01T14:05:05;1.60;;;0.88;;
15693;SDS011;7947;48.834;9.132;2023-08-01T14:08:09;2.17;;;0.77;;
15693;SDS011;7947;48.834;9.132;2023-08-01T14:11:12;0.73;;;0.65;;
15693;SDS011;7947;48.834;9.132;2023-08-01T14:14:15;2.78;;;1.30;;
15693;SDS011;7947;48.834;9.132;2023-08-01T14:17:18;1.25;;;0.85;;
15693;SDS011;7947;48.834;9.132;2023-08-01T14:20:21;1.50;;;0.95;;
15693;SDS011;7947;48.834;9.132;2023-08-01T14:23:26;1.30;;;0.75;;
15693;SDS011;7947;48.834;9.132;2023-08-01T14:26:29;0.80;;;0.70;;
15693;SDS011;7947;48.834;9.132;2023-08-01T14:29:32;2.58;;;0.75;;
15693;SDS011;7947;48.834;9.132;2023-08-01T14:32:36;0.80;;;0.77;;
15693;SDS011;7947;48.834;9.132;2023-08-01T14:35:39;1.38;;;0.73;;
15693;SDS011;7947;48.834;9.132;2023-08-01T14:38:43;2.60;;;1.02;;
15693;SDS011;7947;48.834;9.132;2023-08-01T14:41:46;2.67;;;0.88;;
15693;SDS011;7947;48.834;9.132;2023-08-01T14:45:06;2.25;;;0.93;;
15693;SDS011;7947;48.834;9.132;2023-08-01T14:48:09;0.55;;;0.55;;
15693;SDS011;7947;48.834;9.132;2023-08-01T14:51:12;1.50;;;0.65;;
15693;SDS011;7947;48.834;9.132;2023-08-01T14:54:16;0.95;;;0.50;;
15693;SDS011;7947;48.834;9.132;2023-08-01T14:57:34;0.80;;;0.70;;
15693;SDS011;7947;48.834;9.132;2023-08-01T15:00:37;1.35;;;0.70;;
15693;SDS011;7947;48.834;9.132;2023-08-01T15:03:40;0.52;;;0.50;;
15693;SDS011;7947;48.834;9.132;2023-08-01T15:06:42;0.85;;;0.57;;
15693;SDS011;7947;48.834;9.132;2023-08-01T15:09:47;1.42;;;0.60;;
15693;SDS011;7947;48.834;9.132;2023-08-01T15:12:51;0.73;;;0.73;;
15693;SDS011;7947;48.834;9.132;2023-08-01T15:15:54;1.08;;;0.70;;
15693;SDS011;7947;48.834;9.132;2023-08-01T15:18:57;1.73;;;0.70;;
15693;SDS011;7947;48.834;9.132;2023-08-01T15:22:00;5.18;;;1.08;;
15693;SDS011;7947;48.834;9.132;2023-08-01T15:25:05;1.35;;;0.82;;
15693;SDS011;7947;48.834;9.132;2023-08-01T15:28:08;1.38;;;0.70;;
15693;SDS011;7947;48.834;9.132;2023-08-01T15:31:11;1.10;;;0.82;;
15693;SDS011;7947;48.834;9.132;2023-08-01T15:34:15;0.80;;;0.63;;
15693;SDS011;7947;48.834;9.132;2023-08-01T15:37:17;1.00;;;0.60;;
15693;SDS011;7947;48.834;9.132;2023-08-01T15:40:22;0.77;;;0.70;;
15693;SDS011;7947;48.834;9.132;2023-08-01T15:43:24;1.98;;;1.20;;
15693;SDS011;7947;48.834;9.132;2023-08-01T15:46:28;1.88;;;0.93;;
15693;SDS011;7947;48.834;9.132;2023-08-01T15:49:31;0.75;;;0.63;;
15693;SDS011;7947;48.834;9.132;2023-08-01T15:52:34;1.85;;;0.93;;
15693;SDS011;7947;48.834;9.132;2023-08-01T15:55:38;0.95;;;0.63;;
15693;SDS011;7947;48.834;9.132;2023-08-01T15:58:41;1.98;;;0.70;;
15693;SDS011;7947;48.834;9.132;2023-08-01T16:01:44;1.45;;;0.75;;
15693;SDS011;7947;48.834;9.132;2023-08-01T16:04:47;1.02;;;0.80;;
15693;SDS011;7947;48.834;9.132;2023-08-01T16:07:49;1.35;;;0.85;;
15693;SDS011;7947;48.834;9.132;2023-08-01T16:10:54;1.05;;;0.90;;
15693;SDS011;7947;48.834;9.132;2023-08-01T16:13:56;1.35;;;0.90;;
15693;SDS011;7947;48.834;9.132;2023-08-01T16:17:00;0.93;;;0.70;;
15693;SDS011;7947;48.834;9.132;2023-08-01T16:20:03;7.43;;;1.30;;
15693;SDS011;7947;48.834;9.132;2023-08-01T16:23:07;0.82;;;0.80;;
15693;SDS011;7947;48.834;9.132;2023-08-01T16:26:11;1.25;;;0.80;;
15693;SDS011;7947;48.834;9.132;2023-08-01T16:29:14;2.13;;;0.80;;
15693;SDS011;7947;48.834;9.132;2023-08-01T16:32:17;1.38;;;0.80;;
15693;SDS011;7947;48.834;9.132;2023-08-01T16:35:19;1.70;;;1.00;;
15693;SDS011;7947;48.834;9.132;2023-08-01T16:38:22;2.63;;;1.20;;
15693;SDS011;7947;48.834;9.132;2023-08-01T16:41:27;1.58;;;1.08;;
15693;SDS011;7947;48.834;9.132;2023-08-01T16:44:29;1.17;;;0.80;;
15693;SDS011;7947;48.834;9.132;2023-08-01T16:47:32;1.75;;;0.90;;
15693;SDS011;7947;48.834;9.132;2023-08-01T16:50:42;0.80;;;0.65;;
15693;SDS011;7947;48.834;9.132;2023-08-01T16:53:45;1.58;;;0.88;;
15693;SDS011;7947;48.834;9.132;2023-08-01T16:56:49;1.80;;;0.70;;
15693;SDS011;7947;48.834;9.132;2023-08-01T16:59:52;1.00;;;0.80;;
15693;SDS011;7947;48.834;9.132;2023-08-01T17:02:54;1.00;;;0.70;;
15693;SDS011;7947;48.834;9.132;2023-08-01T17:05:57;2.33;;;0.90;;
15693;SDS011;7947;48.834;9.132;2023-08-01T17:09:00;1.90;;;0.90;;
15693;SDS011;7947;48.834;9.132;2023-08-01T17:12:05;2.03;;;1.10;;
15693;SDS011;7947;48.834;9.132;2023-08-01T17:15:09;0.93;;;0.70;;
15693;SDS011;7947;48.834;9.132;2023-08-01T17:18:12;2.83;;;1.17;;
15693;SDS011;7947;48.834;9.132;2023-08-01T17:21:15;1.25;;;0.70;;
15693;SDS011;7947;48.834;9.132;2023-08-01T17:24:19;1.45;;;0.80;;
15693;SDS011;7947;48.834;9.132;2023-08-01T17:27:23;1.05;;;0.70;;
15693;SDS011;7947;48.834;9.132;2023-08-01T17:30:27;1.63;;;0.98;;
15693;SDS011;7947;48.834;9.132;2023-08-01T17:33:30;1.05;;;0.60;;
15693;SDS011;7947;48.834;9.132;2023-08-01T17:36:33;1.42;;;1.00;;
15693;SDS011;7947;48.834;9.132;2023-08-01T17:39:35;0.93;;;0.70;;
15693;SDS011;7947;48.834;9.132;2023-08-01T17:42:40;0.90;;;0.60;;
15693;SDS011;7947;48.834;9.132;2023-08-01T17:45:42;2.97;;;1.15;;
15693;SDS011;7947;48.834;9.132;2023-08-01T17:48:45;2.55;;;0.60;;
15693;SDS011;7947;48.834;9.132;2023-08-01T17:51:49;1.30;;;0.93;;
15693;SDS011;7947;48.834;9.132;2023-08-01T17:54:52;0.82;;;0.70;;
15693;SDS011;7947;48.834;9.132;2023-08-01T17:57:56;1.38;;;1.08;;
15693;SDS011;7947;48.834;9.132;2023-08-01T18:00:59;1.38;;;0.98;;
15693;SDS011;7947;48.834;9.132;2023-08-01T18:04:02;1.58;;;0.93;;
15693;SDS011;7947;48.834;9.132;2023-08-01T18:07:05;1.77;;;0.80;;
15693;SDS011;7947;48.834;9.132;2023-08-01T18:10:08;0.75;;;0.70;;
15693;SDS011;7947;48.834;9.132;2023-08-01T18:13:13;1.85;;;0.80;;
15693;SDS011;7947;48.834;9.132;2023-08-01T18:16:19;1.10;;;0.70;;
15693;SDS011;7947;48.834;9.132;2023-08-01T18:19:22;1.52;;;0.95;;
15693;SDS011;7947;48.834;9.132;2023-08-01T18:22:24;2.13;;;0.88;;
15693;SDS011;7947;48.834;9.132;2023-08-01T18:25:29;1.77;;;0.73;;
15693;SDS011;7947;48.834;9.132;2023-08-01T18:28:37;0.95;;;0.80;;
15693;SDS011;7947;48.834;9.132;2023-08-01T18:31:39;1.25;;;0.82;;
15693;SDS011;7947;48.834;9.132;2023-08-01T18:34:42;2.53;;;0.80;;
15693;SDS011;7947;48.834;9.132;2023-08-01T18:37:45;2.92;;;0.98;;
15693;SDS011;7947;48.834;9.132;2023-08-01T18:40:48;2.72;;;0.95;;
15693;SDS011;7947;48.834;9.132;2023-08-01T18:43:52;1.35;;;0.73;;